createdAt,value
2023-09-17T00:00:25.009Z,15.38
2023-09-17T00:03:33.873Z,15.35
2023-09-17T00:06:22.457Z,15.31
2023-09-17T00:09:11.146Z,15.26
2023-09-17T00:12:00.729Z,15.26
2023-09-17T00:14:49.936Z,15.26
2023-09-17T00:17:38.502Z,15.24
2023-09-17T00:20:27.071Z,15.21
2023-09-17T00:23:15.674Z,15.15
2023-09-17T00:26:04.742Z,15.13
2023-09-17T00:28:53.640Z,15.12
2023-09-17T00:31:42.270Z,15.09
2023-09-17T00:34:31.467Z,15.03
2023-09-17T00:37:20.080Z,14.97
2023-09-17T00:40:12.371Z,14.87
2023-09-17T00:43:01.328Z,14.74
2023-09-17T00:45:49.922Z,14.70
2023-09-17T00:48:38.597Z,14.65
2023-09-17T00:51:27.699Z,14.63
2023-09-17T00:54:16.955Z,14.63
2023-09-17T00:57:05.580Z,14.61
2023-09-17T00:59:54.196Z,14.61
2023-09-17T01:03:13.844Z,14.60
2023-09-17T01:06:04.281Z,14.58
2023-09-17T01:08:53.123Z,14.56
2023-09-17T01:11:42.638Z,14.52
2023-09-17T01:14:34.039Z,14.50
2023-09-17T01:17:27.796Z,14.49
2023-09-17T01:20:31.321Z,14.48
2023-09-17T01:23:48.345Z,14.50
2023-09-17T01:26:40.590Z,14.54
2023-09-17T01:29:35.926Z,14.57
2023-09-17T01:32:25.573Z,14.60
2023-09-17T01:35:16.653Z,14.62
2023-09-17T01:38:06.822Z,14.62
2023-09-17T01:40:56.126Z,14.57
2023-09-17T01:43:45.886Z,14.50
2023-09-17T01:46:36.336Z,14.43
2023-09-17T01:49:25.885Z,14.39
2023-09-17T01:52:16.022Z,14.38
2023-09-17T01:55:05.296Z,14.38
2023-09-17T01:57:53.850Z,14.35
2023-09-17T02:00:42.377Z,14.35
2023-09-17T02:03:32.334Z,14.34
2023-09-17T02:06:20.992Z,14.35
2023-09-17T02:09:10.107Z,14.33
2023-09-17T02:11:58.657Z,14.29
2023-09-17T02:14:47.271Z,14.23
2023-09-17T02:17:35.886Z,14.15
2023-09-17T02:20:25.532Z,14.11
2023-09-17T02:23:14.047Z,14.08
2023-09-17T02:26:02.681Z,14.06
2023-09-17T02:28:51.337Z,14.06
2023-09-17T02:31:39.962Z,14.04
2023-09-17T02:34:28.646Z,13.99
2023-09-17T02:37:17.191Z,13.95
2023-09-17T02:40:10.280Z,13.96
2023-09-17T02:42:59.201Z,13.99
2023-09-17T02:45:47.779Z,14.03
2023-09-17T02:48:36.299Z,14.05
2023-09-17T02:51:24.878Z,14.05
2023-09-17T02:54:13.483Z,14.05
2023-09-17T02:57:02.194Z,14.03
2023-09-17T02:59:50.748Z,13.92
2023-09-17T03:02:44.452Z,13.82
2023-09-17T03:05:33.281Z,13.78
2023-09-17T03:08:21.899Z,13.81
2023-09-17T03:11:15.046Z,13.89
2023-09-17T03:14:05.238Z,13.99
2023-09-17T03:16:54.188Z,14.08
2023-09-17T03:19:43.989Z,14.16
2023-09-17T03:22:32.892Z,14.20
2023-09-17T03:25:21.546Z,14.22
2023-09-17T03:28:13.066Z,14.24
2023-09-17T03:31:02.672Z,14.27
2023-09-17T03:33:52.056Z,14.29
2023-09-17T03:36:40.868Z,14.34
2023-09-17T03:39:29.618Z,14.38
2023-09-17T03:42:18.296Z,14.38
2023-09-17T03:45:10.867Z,14.34
2023-09-17T03:47:59.734Z,14.27
2023-09-17T03:50:50.534Z,14.26
2023-09-17T03:53:39.531Z,14.27
2023-09-17T03:56:28.649Z,14.28
2023-09-17T03:59:17.728Z,14.27
2023-09-17T04:02:06.425Z,14.25
2023-09-17T04:04:55.091Z,14.22
2023-09-17T04:07:47.737Z,14.17
2023-09-17T04:10:36.516Z,14.12
2023-09-17T04:13:25.433Z,14.03
2023-09-17T04:16:14.009Z,13.96
2023-09-17T04:19:02.721Z,13.93
2023-09-17T04:21:51.335Z,13.90
2023-09-17T04:24:40.189Z,13.88
2023-09-17T04:27:28.707Z,13.87
2023-09-17T04:30:18.131Z,13.86
2023-09-17T04:33:06.853Z,13.87
2023-09-17T04:35:57.526Z,13.86
2023-09-17T04:38:46.513Z,13.85
2023-09-17T04:41:36.272Z,13.85
2023-09-17T04:44:25.096Z,13.85
2023-09-17T04:47:14.009Z,13.86
2023-09-17T04:50:03.982Z,13.84
2023-09-17T04:52:52.797Z,13.88
2023-09-17T04:55:41.460Z,13.99
2023-09-17T04:58:30.125Z,14.12
2023-09-17T05:01:19.488Z,14.21
2023-09-17T05:04:08.662Z,14.28
2023-09-17T05:06:57.348Z,14.35
2023-09-17T05:09:47.763Z,14.45
2023-09-17T05:12:36.363Z,14.57
2023-09-17T05:15:25.002Z,14.71
2023-09-17T05:18:14.456Z,14.88
2023-09-17T05:21:07.551Z,15.04
2023-09-17T05:23:56.645Z,15.21
2023-09-17T05:26:45.170Z,15.42
2023-09-17T05:29:34.347Z,15.59
2023-09-17T05:32:23.132Z,15.70
2023-09-17T05:35:11.814Z,15.78
2023-09-17T05:38:00.462Z,15.85
2023-09-17T05:40:49.186Z,15.92
2023-09-17T05:43:39.296Z,15.98
2023-09-17T05:46:27.980Z,16.03
2023-09-17T05:49:16.583Z,16.08
2023-09-17T05:52:05.225Z,16.14
2023-09-17T05:54:54.501Z,16.20
2023-09-17T05:57:44.031Z,16.25
2023-09-17T06:00:32.941Z,16.33
2023-09-17T06:03:21.759Z,16.58
2023-09-17T06:06:10.358Z,16.86
2023-09-17T06:08:58.923Z,17.15
2023-09-17T06:11:51.123Z,17.52
2023-09-17T06:14:40.685Z,17.90
2023-09-17T06:17:29.530Z,18.20
2023-09-17T06:20:18.969Z,18.34
2023-09-17T06:23:07.690Z,18.46
2023-09-17T06:25:56.305Z,18.51
2023-09-17T06:28:44.952Z,18.52
2023-09-17T06:31:34.027Z,18.50
2023-09-17T06:34:22.872Z,18.49
2023-09-17T06:37:11.610Z,18.50
2023-09-17T06:40:00.340Z,18.52
2023-09-17T06:42:49.452Z,18.55
2023-09-17T06:45:38.570Z,18.54
2023-09-17T06:48:28.605Z,18.55
2023-09-17T06:51:17.269Z,18.54
2023-09-17T06:54:06.036Z,18.51
2023-09-17T06:56:55.120Z,18.52
2023-09-17T06:59:43.652Z,18.55
2023-09-17T07:02:32.163Z,18.62
2023-09-17T07:05:21.509Z,18.73
2023-09-17T07:08:10.109Z,18.84
2023-09-17T07:10:58.681Z,19.09
2023-09-17T07:13:47.363Z,19.36
2023-09-17T07:16:40.915Z,19.61
2023-09-17T07:19:29.741Z,19.82
2023-09-17T07:22:18.438Z,20.01
2023-09-17T07:25:07.123Z,20.15
2023-09-17T07:27:55.748Z,20.32
2023-09-17T07:30:44.310Z,20.48
2023-09-17T07:33:33.034Z,20.67
2023-09-17T07:36:21.731Z,20.81
2023-09-17T07:39:10.473Z,20.92
2023-09-17T07:41:59.081Z,21.08
2023-09-17T07:44:47.799Z,21.21
2023-09-17T07:47:36.433Z,21.34
2023-09-17T07:50:25.137Z,21.49
2023-09-17T07:53:13.655Z,21.67
2023-09-17T07:56:02.790Z,21.84
2023-09-17T07:58:51.394Z,21.90
2023-09-17T08:01:39.968Z,21.74
2023-09-17T08:04:28.659Z,21.63
2023-09-17T08:07:18.264Z,21.58
2023-09-17T08:10:08.014Z,21.51
2023-09-17T08:12:56.650Z,21.46
2023-09-17T08:15:47.754Z,21.43
2023-09-17T08:18:36.272Z,21.42
2023-09-17T08:21:25.106Z,21.48
2023-09-17T08:24:15.682Z,21.50
2023-09-17T08:27:05.748Z,21.50
2023-09-17T08:29:54.299Z,21.67
2023-09-17T08:32:44.709Z,21.80
2023-09-17T08:35:33.293Z,21.86
2023-09-17T08:38:21.887Z,21.79
2023-09-17T08:41:10.945Z,21.84
2023-09-17T08:43:59.893Z,22.02
2023-09-17T08:46:53.067Z,22.24
2023-09-17T08:49:42.223Z,22.41
2023-09-17T08:52:34.222Z,22.51
2023-09-17T08:55:23.179Z,22.59
2023-09-17T08:58:15.992Z,22.65
2023-09-17T09:01:08.107Z,22.76
2023-09-17T09:03:58.124Z,22.92
2023-09-17T09:06:47.602Z,23.15
2023-09-17T09:09:37.454Z,23.39
2023-09-17T09:12:27.785Z,23.53
2023-09-17T09:15:16.543Z,23.62
2023-09-17T09:18:05.525Z,23.71
2023-09-17T09:20:54.024Z,23.80
2023-09-17T09:23:42.711Z,23.90
2023-09-17T09:26:35.534Z,24.01
2023-09-17T09:29:24.039Z,24.16
2023-09-17T09:32:13.992Z,24.27
2023-09-17T09:35:02.927Z,24.36
2023-09-17T09:37:52.462Z,24.43
2023-09-17T09:40:43.587Z,24.49
2023-09-17T09:43:33.357Z,24.55
2023-09-17T09:46:23.072Z,24.68
2023-09-17T09:49:11.701Z,24.82
2023-09-17T09:52:00.535Z,24.86
2023-09-17T09:54:49.144Z,24.97
2023-09-17T09:57:40.870Z,25.12
2023-09-17T10:00:30.705Z,25.14
2023-09-17T10:03:20.830Z,25.20
2023-09-17T10:06:09.465Z,25.27
2023-09-17T10:09:00.382Z,25.34
2023-09-17T10:11:49.487Z,25.45
2023-09-17T10:14:39.325Z,25.61
2023-09-17T10:17:28.230Z,25.70
2023-09-17T10:20:19.589Z,25.64
2023-09-17T10:23:08.954Z,25.39
2023-09-17T10:26:00.605Z,25.34
2023-09-17T10:28:51.493Z,25.49
2023-09-17T10:31:42.555Z,25.56
2023-09-17T10:34:36.723Z,25.71
2023-09-17T10:37:27.322Z,25.80
2023-09-17T10:40:16.758Z,25.81
2023-09-17T10:43:07.413Z,25.65
2023-09-17T10:45:56.610Z,25.76
2023-09-17T10:48:46.040Z,25.81
2023-09-17T10:51:34.989Z,25.96
2023-09-17T10:54:23.601Z,25.95
2023-09-17T10:57:24.819Z,25.89
2023-09-17T11:00:18.628Z,25.83
2023-09-17T11:03:08.223Z,25.78
2023-09-17T11:05:58.669Z,25.68
2023-09-17T11:08:48.280Z,25.63
2023-09-17T11:11:36.898Z,25.57
2023-09-17T11:14:25.517Z,25.64
2023-09-17T11:17:19.218Z,25.87
2023-09-17T11:20:15.081Z,26.12
2023-09-17T11:23:05.289Z,26.17
2023-09-17T11:25:56.137Z,26.11
2023-09-17T11:28:44.850Z,26.19
2023-09-17T11:31:52.572Z,26.30
2023-09-17T11:34:44.757Z,26.45
2023-09-17T11:37:33.438Z,26.53
2023-09-17T11:40:22.010Z,26.65
2023-09-17T11:43:14.162Z,26.80
2023-09-17T11:46:12.252Z,26.85
2023-09-17T11:49:00.976Z,26.93
2023-09-17T11:51:50.316Z,27.02
2023-09-17T11:54:52.678Z,27.12
2023-09-17T11:57:41.324Z,27.17
2023-09-17T12:00:31.206Z,27.13
2023-09-17T12:03:20.042Z,26.94
2023-09-17T12:06:09.480Z,26.70
2023-09-17T12:09:06.879Z,26.58
2023-09-17T12:11:56.346Z,26.30
2023-09-17T12:14:45.939Z,26.13
2023-09-17T12:17:43.739Z,25.97
2023-09-17T12:20:58.167Z,25.74
2023-09-17T12:23:55.996Z,25.59
2023-09-17T12:27:07.537Z,25.52
2023-09-17T12:29:57.405Z,25.49
2023-09-17T12:32:46.150Z,25.49
2023-09-17T12:35:36.937Z,25.46
2023-09-17T12:38:26.381Z,25.43
2023-09-17T12:41:22.253Z,25.49
2023-09-17T12:44:19.644Z,25.69
2023-09-17T12:47:09.461Z,25.79
2023-09-17T12:50:00.842Z,25.96
2023-09-17T12:52:49.642Z,26.12
2023-09-17T12:55:39.408Z,26.30
2023-09-17T12:58:28.294Z,26.52
2023-09-17T13:01:18.400Z,26.76
2023-09-17T13:04:07.934Z,26.79
2023-09-17T13:06:58.401Z,26.78
2023-09-17T13:09:48.342Z,26.91
2023-09-17T13:12:37.308Z,26.99
2023-09-17T13:15:26.217Z,27.06
2023-09-17T13:18:15.528Z,27.09
2023-09-17T13:21:07.645Z,27.07
2023-09-17T13:24:01.970Z,26.86
2023-09-17T13:26:51.452Z,26.52
2023-09-17T13:29:43.432Z,26.26
2023-09-17T13:32:32.746Z,26.05
2023-09-17T13:35:25.083Z,25.87
2023-09-17T13:38:14.439Z,25.70
2023-09-17T13:41:04.349Z,25.61
2023-09-17T13:43:53.219Z,25.59
2023-09-17T13:46:48.543Z,25.59
2023-09-17T13:49:37.709Z,25.54
2023-09-17T13:52:26.935Z,25.47
2023-09-17T13:55:16.848Z,25.42
2023-09-17T13:58:05.793Z,25.36
2023-09-17T14:00:55.111Z,25.30
2023-09-17T14:03:43.930Z,25.24
2023-09-17T14:06:35.791Z,25.19
2023-09-17T14:09:25.629Z,25.12
2023-09-17T14:12:14.650Z,25.05
2023-09-17T14:15:03.311Z,24.97
2023-09-17T14:17:51.974Z,24.92
2023-09-17T14:20:40.564Z,24.89
2023-09-17T14:23:29.087Z,24.86
2023-09-17T14:26:17.768Z,24.83
2023-09-17T14:29:06.520Z,24.80
2023-09-17T14:31:55.330Z,24.74
2023-09-17T14:34:44.064Z,24.71
2023-09-17T14:37:32.957Z,24.73
2023-09-17T14:40:22.172Z,24.71
2023-09-17T14:43:12.367Z,24.65
2023-09-17T14:46:00.938Z,24.61
2023-09-17T14:48:52.438Z,24.58
2023-09-17T14:51:41.165Z,24.59
2023-09-17T14:54:29.687Z,24.58
2023-09-17T14:57:18.213Z,24.53
2023-09-17T15:00:07.809Z,24.49
2023-09-17T15:02:56.455Z,24.46
2023-09-17T15:05:45.127Z,24.42
2023-09-17T15:08:33.696Z,24.39
2023-09-17T15:11:22.830Z,24.33
2023-09-17T15:14:11.369Z,24.24
2023-09-17T15:16:59.984Z,24.14
2023-09-17T15:19:48.669Z,24.08
2023-09-17T15:22:38.538Z,24.05
2023-09-17T15:25:27.215Z,23.98
2023-09-17T15:28:15.742Z,23.93
2023-09-17T15:31:05.827Z,23.88
2023-09-17T15:33:54.729Z,23.83
2023-09-17T15:36:43.644Z,23.76
2023-09-17T15:39:32.241Z,23.72
2023-09-17T15:42:20.748Z,23.70
2023-09-17T15:45:09.601Z,23.67
2023-09-17T15:47:58.509Z,23.62
2023-09-17T15:50:47.508Z,23.57
2023-09-17T15:53:36.043Z,23.53
2023-09-17T15:56:24.521Z,23.47
2023-09-17T15:59:13.119Z,23.42
2023-09-17T16:02:01.684Z,23.38
2023-09-17T16:04:51.412Z,23.35
2023-09-17T16:07:48.576Z,23.32
2023-09-17T16:10:37.936Z,23.30
2023-09-17T16:13:26.476Z,23.27
2023-09-17T16:16:15.247Z,23.25
2023-09-17T16:19:03.824Z,23.23
2023-09-17T16:21:52.363Z,23.20
2023-09-17T16:24:41.629Z,23.19
2023-09-17T16:27:30.806Z,23.17
2023-09-17T16:30:20.446Z,23.13
2023-09-17T16:33:09.336Z,23.09
2023-09-17T16:36:00.754Z,23.06
2023-09-17T16:38:49.276Z,23.02
2023-09-17T16:41:37.790Z,22.96
2023-09-17T16:44:27.309Z,22.91
2023-09-17T16:47:16.584Z,22.86
2023-09-17T16:50:05.716Z,22.80
2023-09-17T16:52:54.260Z,22.74
2023-09-17T16:55:42.938Z,22.67
2023-09-17T16:58:31.574Z,22.61
2023-09-17T17:01:20.150Z,22.55
2023-09-17T17:04:08.802Z,22.49
2023-09-17T17:06:57.567Z,22.44
2023-09-17T17:09:46.108Z,22.38
2023-09-17T17:12:35.379Z,22.34
2023-09-17T17:15:23.910Z,22.28
2023-09-17T17:18:12.781Z,22.24
2023-09-17T17:21:03.840Z,22.20
2023-09-17T17:23:52.578Z,22.16
2023-09-17T17:26:41.726Z,22.13
2023-09-17T17:29:30.630Z,22.10
2023-09-17T17:32:19.480Z,22.04
2023-09-17T17:35:09.066Z,21.97
2023-09-17T17:37:57.812Z,21.89
2023-09-17T17:40:46.462Z,21.81
2023-09-17T17:43:38.101Z,21.74
2023-09-17T17:46:26.896Z,21.67
2023-09-17T17:49:15.895Z,21.61
2023-09-17T17:52:05.137Z,21.54
2023-09-17T17:54:53.828Z,21.47
2023-09-17T17:57:42.450Z,21.41
2023-09-17T18:00:31.519Z,21.34
2023-09-17T18:03:20.202Z,21.27
2023-09-17T18:06:08.768Z,21.24
2023-09-17T18:08:57.862Z,21.22
2023-09-17T18:11:46.385Z,21.24
2023-09-17T18:14:36.015Z,21.23
2023-09-17T18:17:26.805Z,21.23
2023-09-17T18:20:17.927Z,21.23
2023-09-17T18:23:06.651Z,21.22
2023-09-17T18:25:55.823Z,21.21
2023-09-17T18:28:44.474Z,21.20
2023-09-17T18:31:33.679Z,21.19
2023-09-17T18:34:22.233Z,21.16
2023-09-17T18:37:11.082Z,21.12
2023-09-17T18:39:59.889Z,21.08
2023-09-17T18:42:48.714Z,21.03
2023-09-17T18:45:38.042Z,20.99
2023-09-17T18:48:26.835Z,20.93
2023-09-17T18:51:15.935Z,20.88
2023-09-17T18:54:04.916Z,20.84
2023-09-17T18:56:53.677Z,20.81
2023-09-17T18:59:42.435Z,20.78
2023-09-17T19:02:31.384Z,20.75
2023-09-17T19:05:21.206Z,20.71
2023-09-17T19:08:09.899Z,20.67
2023-09-17T19:10:58.705Z,20.61
2023-09-17T19:13:47.507Z,20.54
2023-09-17T19:16:36.579Z,20.45
2023-09-17T19:19:25.118Z,20.36
2023-09-17T19:22:13.895Z,20.27
2023-09-17T19:25:02.572Z,20.17
2023-09-17T19:27:51.663Z,20.08
2023-09-17T19:30:40.208Z,19.99
2023-09-17T19:33:29.516Z,19.92
2023-09-17T19:36:20.244Z,19.85
2023-09-17T19:39:09.253Z,19.75
2023-09-17T19:41:58.556Z,19.66
2023-09-17T19:44:47.861Z,19.58
2023-09-17T19:47:37.209Z,19.48
2023-09-17T19:50:26.959Z,19.37
2023-09-17T19:53:16.591Z,19.27
2023-09-17T19:56:05.312Z,19.17
2023-09-17T19:58:54.224Z,19.10
2023-09-17T20:01:45.327Z,19.03
2023-09-17T20:04:35.597Z,18.96
2023-09-17T20:07:25.752Z,18.90
2023-09-17T20:10:16.108Z,18.81
2023-09-17T20:13:04.784Z,18.72
2023-09-17T20:15:53.336Z,18.62
2023-09-17T20:18:42.990Z,18.52
2023-09-17T20:21:32.325Z,18.43
2023-09-17T20:24:20.970Z,18.35
2023-09-17T20:27:09.994Z,18.28
2023-09-17T20:29:58.475Z,18.21
2023-09-17T20:32:47.111Z,18.17
2023-09-17T20:35:38.120Z,18.11
2023-09-17T20:38:26.834Z,17.98
2023-09-17T20:41:15.507Z,17.88
2023-09-17T20:44:04.239Z,17.79
2023-09-17T20:46:52.838Z,17.72
2023-09-17T20:49:41.367Z,17.66
2023-09-17T20:52:29.967Z,17.57
2023-09-17T20:55:18.639Z,17.48
2023-09-17T20:58:07.199Z,17.43
2023-09-17T21:00:55.743Z,17.38
2023-09-17T21:03:45.738Z,17.32
2023-09-17T21:06:34.735Z,17.27
2023-09-17T21:09:27.357Z,17.25
2023-09-17T21:12:16.070Z,17.20
2023-09-17T21:15:06.884Z,17.17
2023-09-17T21:17:56.871Z,17.13
2023-09-17T21:20:46.152Z,17.06
2023-09-17T21:23:36.867Z,17.01
2023-09-17T21:26:25.828Z,16.93
2023-09-17T21:29:15.008Z,16.87
2023-09-17T21:32:04.334Z,16.82
2023-09-17T21:34:53.024Z,16.77
2023-09-17T21:37:41.566Z,16.75
2023-09-17T21:40:30.440Z,16.72
2023-09-17T21:43:19.047Z,16.69
2023-09-17T21:46:07.615Z,16.65
2023-09-17T21:48:59.161Z,16.62
2023-09-17T21:51:47.962Z,16.58
2023-09-17T21:54:36.578Z,16.52
2023-09-17T21:57:25.638Z,16.49
2023-09-17T22:00:22.576Z,16.47
2023-09-17T22:03:11.230Z,16.43
2023-09-17T22:06:04.901Z,16.37
2023-09-17T22:08:53.613Z,16.29
2023-09-17T22:11:42.388Z,16.24
2023-09-17T22:14:31.192Z,16.20
2023-09-17T22:17:20.462Z,16.15
2023-09-17T22:20:19.712Z,16.10
2023-09-17T22:23:08.512Z,16.04
2023-09-17T22:25:57.151Z,15.94
2023-09-17T22:28:45.859Z,15.85
2023-09-17T22:31:34.433Z,15.76
2023-09-17T22:34:22.907Z,15.68
2023-09-17T22:37:13.786Z,15.61
2023-09-17T22:40:09.256Z,15.59
2023-09-17T22:42:58.183Z,15.56
2023-09-17T22:45:46.853Z,15.56
2023-09-17T22:48:35.400Z,15.54
2023-09-17T22:51:24.427Z,15.51
2023-09-17T22:54:13.138Z,15.50
2023-09-17T22:57:01.620Z,15.48
2023-09-17T22:59:50.660Z,15.44
2023-09-17T23:02:39.445Z,15.44
2023-09-17T23:05:28.638Z,15.43
2023-09-17T23:08:17.688Z,15.44
2023-09-17T23:11:06.952Z,15.44
2023-09-17T23:13:55.643Z,15.44
2023-09-17T23:16:45.625Z,15.41
2023-09-17T23:19:34.240Z,15.38
2023-09-17T23:22:22.761Z,15.37
2023-09-17T23:25:11.311Z,15.36
2023-09-17T23:27:59.796Z,15.33
2023-09-17T23:30:48.533Z,15.31
2023-09-17T23:33:37.189Z,15.31
2023-09-17T23:36:28.466Z,15.30
2023-09-17T23:39:17.095Z,15.28
2023-09-17T23:42:05.767Z,15.25
2023-09-17T23:44:55.020Z,15.23
2023-09-17T23:47:43.646Z,15.20
2023-09-17T23:50:32.234Z,15.17
2023-09-17T23:53:20.871Z,15.16
2023-09-17T23:56:09.513Z,15.14
2023-09-17T23:58:58.072Z,15.13
